MSC Maria Pia — 9HA2580 — position and weather

sailwx.info

Track history (hours):
 
Tides and Currents Weather Stations Pressure Air Temp Water Temp Dewpoint Dewpoint Depression Visibility Wind Speed Wind Dir Waves Ship Positions

MSC Maria Pia

Last reported at 2017-Oct-23 10:25 UTC. Time now 2017-Nov-19 05:04 UTC.
Position N 01°17' E 103°45'.
Warning: this ship's position is 26 days out of date.

Length 196 m; draft 9.3 m.

Type: Ship. MMSI: 248930000.

Date/timePositionNaut miles runAvg speedWind from/ knotsBaromVisibWave heightAir tempDewpointWater temp
2017-Oct-23 10:25N 01°17' E 103°45'0 0.0
2017-Oct-23 10:00N 01°17' E 103°45'0 0.0
2017-Oct-23 09:28N 01°17' E 103°45'0 0.0
2017-Oct-23 08:58N 01°17' E 103°45'0 0.0
2017-Oct-23 08:28N 01°17' E 103°45'0 0.0
2017-Oct-23 07:58N 01°17' E 103°45'0 0.0
2017-Oct-23 07:25N 01°17' E 103°45'0 0.0
2017-Oct-23 06:58N 01°17' E 103°45'0 0.0
2017-Oct-23 06:25N 01°17' E 103°45'0 0.0
2017-Oct-23 05:58N 01°17' E 103°45'0 0.0
2017-Oct-23 05:28N 01°17' E 103°45'0 0.0
2017-Oct-23 04:58N 01°17' E 103°45'0 0.0
2017-Oct-23 04:25N 01°17' E 103°45'0 0.0
2017-Oct-23 03:55N 01°17' E 103°45'0 0.0
2017-Oct-23 03:25N 01°17' E 103°45'0 0.0
2017-Oct-23 02:58N 01°17' E 103°45'0 0.0
2017-Oct-23 02:28N 01°17' E 103°45'0 0.0
2017-Oct-23 01:58N 01°17' E 103°45'0 0.0
2017-Oct-23 01:28N 01°17' E 103°45'0 0.0
2017-Oct-23 00:58N 01°17' E 103°45'0 0.0
2017-Oct-23 00:30N 01°17' E 103°45'1 1.8
2017-Oct-23 00:00N 01°16' E 103°46'3 6.2
2017-Oct-22 23:30N 01°13' E 103°48'4 7.9
2017-Oct-22 22:59N 01°13' E 103°52'3 6.8
2017-Oct-22 22:30N 01°14' E 103°55'3 5.8
2017-Oct-22 22:00N 01°15' E 103°58'5 9.4
2017-Oct-22 21:30N 01°16' E 104°02'  
2017-Oct-17 16:40N 01°14' E 103°58'1 3.9
2017-Oct-17 16:30N 01°14' E 103°58'2 3.8
2017-Oct-17 15:59N 01°13' E 103°56'2 3.6
2017-Oct-17 15:30N 01°12' E 103°54'2 3.7
2017-Oct-17 14:58N 01°12' E 103°53'1 2.9
2017-Oct-17 14:30N 01°11' E 103°51'1 2.4
2017-Oct-17 14:00N 01°11' E 103°50'1 2.2
2017-Oct-17 13:27N 01°12' E 103°49'1 1.9
2017-Oct-17 12:57N 01°12' E 103°48'1 1.2
2017-Oct-17 12:27N 01°13' E 103°48'4 0.8
2017-Oct-17 07:54N 01°16' E 103°46'2611.1
2017-Oct-17 05:32N 01°16' E 104°13'017.2
2017-Oct-17 05:30N 01°16' E 104°12'816.1
2017-Oct-17 04:59N 01°15' E 104°04'715.6
2017-Oct-17 04:30N 01°13' E 103°56'713.1
2017-Oct-17 04:00N 01°11' E 103°50'4 7.4
2017-Oct-17 03:30N 01°13' E 103°47'3 6.1
2017-Oct-17 03:01N 01°16' E 103°46'0 0.1
2017-Oct-17 02:30N 01°16' E 103°46'0 0.0
2017-Oct-17 02:00N 01°16' E 103°46'0 0.0
2017-Oct-17 01:30N 01°16' E 103°46'0 0.0
2017-Oct-17 01:00N 01°16' E 103°46'0 0.0
2017-Oct-17 00:27N 01°16' E 103°46'0 0.0
2017-Oct-17 00:00N 01°16' E 103°46'0 0.0
2017-Oct-16 23:30N 01°16' E 103°46'0 0.0
2017-Oct-16 23:00N 01°16' E 103°46'0 0.0
2017-Oct-16 22:30N 01°16' E 103°46'0 0.0
2017-Oct-16 22:00N 01°16' E 103°46'0 0.0
2017-Oct-16 21:30N 01°16' E 103°46'0 0.0
2017-Oct-16 21:00N 01°16' E 103°46'0 0.0
2017-Oct-16 20:30N 01°16' E 103°46'0 0.0
2017-Oct-16 20:00N 01°16' E 103°46'0 0.0
2017-Oct-16 19:30N 01°16' E 103°46'0 0.0
2017-Oct-16 19:00N 01°16' E 103°46'0 0.0
2017-Oct-16 18:30N 01°16' E 103°46'0 0.0
2017-Oct-16 18:00N 01°16' E 103°46'0 0.0
2017-Oct-16 17:30N 01°16' E 103°46'0 0.0
2017-Oct-16 17:00N 01°16' E 103°46'0 0.0
2017-Oct-16 16:27N 01°16' E 103°46'0 0.0
2017-Oct-16 16:00N 01°16' E 103°46'0 0.0
2017-Oct-16 15:30N 01°16' E 103°46'0 0.0
2017-Oct-16 15:00N 01°16' E 103°46'0 0.0
2017-Oct-16 14:30N 01°16' E 103°46'0 0.0
2017-Oct-16 13:30N 01°16' E 103°46'0 0.0
2017-Oct-16 13:00N 01°16' E 103°46'0 0.0
2017-Oct-16 12:30N 01°16' E 103°46'0 0.0
2017-Oct-16 12:00N 01°16' E 103°46'0 0.0
2017-Oct-16 11:30N 01°16' E 103°46'0 0.0
2017-Oct-16 11:00N 01°16' E 103°46'0 0.0
2017-Oct-16 10:30N 01°16' E 103°46'0 0.0
2017-Oct-16 10:00N 01°16' E 103°46'0 0.0
2017-Oct-16 09:30N 01°16' E 103°46'0 0.0
2017-Oct-16 09:00N 01°16' E 103°46'0 0.0
2017-Oct-16 08:30N 01°16' E 103°46'0 0.0
2017-Oct-16 07:54N 01°16' E 103°46'0 0.0
2017-Oct-16 07:30N 01°16' E 103°46'0 0.1
2017-Oct-16 07:01N 01°16' E 103°46'1 2.1
2017-Oct-16 06:31N 01°15' E 103°47'4 7.4
2017-Oct-16 06:01N 01°13' E 103°49'5 9.1
2017-Oct-16 05:30N 01°14' E 103°54'3 5.6
2017-Oct-16 05:01N 01°14' E 103°56'4 8.0
2017-Oct-16 04:31N 01°16' E 104°00'5 9.1
2017-Oct-16 03:59N 01°17' E 104°05'  
Track history (hours):
 
Tides and Currents Weather Stations Pressure Air Temp Water Temp Dewpoint Dewpoint Depression Visibility Wind Speed Wind Dir Waves Ship Positions

MSC Maria Pia

Last reported at 2017-Oct-23 10:25 UTC. Time now 2017-Nov-19 05:04 UTC.
Position N 01°17' E 103°45'.
Warning: this ship's position is 26 days out of date.

Length 196 m; draft 9.3 m.

Type: Ship. MMSI: 248930000.

Date/timePositionNaut miles runAvg speedWind from/ knotsBaromVisibWave heightAir tempDewpointWater temp
2017-Oct-23 10:25N 01°17' E 103°45'0 0.0
2017-Oct-23 10:00N 01°17' E 103°45'0 0.0
2017-Oct-23 09:28N 01°17' E 103°45'0 0.0
2017-Oct-23 08:58N 01°17' E 103°45'0 0.0
2017-Oct-23 08:28N 01°17' E 103°45'0 0.0
2017-Oct-23 07:58N 01°17' E 103°45'0 0.0
2017-Oct-23 07:25N 01°17' E 103°45'0 0.0
2017-Oct-23 06:58N 01°17' E 103°45'0 0.0
2017-Oct-23 06:25N 01°17' E 103°45'0 0.0
2017-Oct-23 05:58N 01°17' E 103°45'0 0.0
2017-Oct-23 05:28N 01°17' E 103°45'0 0.0
2017-Oct-23 04:58N 01°17' E 103°45'0 0.0
2017-Oct-23 04:25N 01°17' E 103°45'0 0.0
2017-Oct-23 03:55N 01°17' E 103°45'0 0.0
2017-Oct-23 03:25N 01°17' E 103°45'0 0.0
2017-Oct-23 02:58N 01°17' E 103°45'0 0.0
2017-Oct-23 02:28N 01°17' E 103°45'0 0.0
2017-Oct-23 01:58N 01°17' E 103°45'0 0.0
2017-Oct-23 01:28N 01°17' E 103°45'0 0.0
2017-Oct-23 00:58N 01°17' E 103°45'0 0.0
2017-Oct-23 00:30N 01°17' E 103°45'1 1.8
2017-Oct-23 00:00N 01°16' E 103°46'3 6.2
2017-Oct-22 23:30N 01°13' E 103°48'4 7.9
2017-Oct-22 22:59N 01°13' E 103°52'3 6.8
2017-Oct-22 22:30N 01°14' E 103°55'3 5.8
2017-Oct-22 22:00N 01°15' E 103°58'5 9.4
2017-Oct-22 21:30N 01°16' E 104°02'  
2017-Oct-17 16:40N 01°14' E 103°58'1 3.9
2017-Oct-17 16:30N 01°14' E 103°58'2 3.8
2017-Oct-17 15:59N 01°13' E 103°56'2 3.6
2017-Oct-17 15:30N 01°12' E 103°54'2 3.7
2017-Oct-17 14:58N 01°12' E 103°53'1 2.9
2017-Oct-17 14:30N 01°11' E 103°51'1 2.4
2017-Oct-17 14:00N 01°11' E 103°50'1 2.2
2017-Oct-17 13:27N 01°12' E 103°49'1 1.9
2017-Oct-17 12:57N 01°12' E 103°48'1 1.2
2017-Oct-17 12:27N 01°13' E 103°48'4 0.8
2017-Oct-17 07:54N 01°16' E 103°46'2611.1
2017-Oct-17 05:32N 01°16' E 104°13'017.2
2017-Oct-17 05:30N 01°16' E 104°12'816.1
2017-Oct-17 04:59N 01°15' E 104°04'715.6
2017-Oct-17 04:30N 01°13' E 103°56'713.1
2017-Oct-17 04:00N 01°11' E 103°50'4 7.4
2017-Oct-17 03:30N 01°13' E 103°47'3 6.1
2017-Oct-17 03:01N 01°16' E 103°46'0 0.1
2017-Oct-17 02:30N 01°16' E 103°46'0 0.0
2017-Oct-17 02:00N 01°16' E 103°46'0 0.0
2017-Oct-17 01:30N 01°16' E 103°46'0 0.0
2017-Oct-17 01:00N 01°16' E 103°46'0 0.0
2017-Oct-17 00:27N 01°16' E 103°46'0 0.0
2017-Oct-17 00:00N 01°16' E 103°46'0 0.0
2017-Oct-16 23:30N 01°16' E 103°46'0 0.0
2017-Oct-16 23:00N 01°16' E 103°46'0 0.0
2017-Oct-16 22:30N 01°16' E 103°46'0 0.0
2017-Oct-16 22:00N 01°16' E 103°46'0 0.0
2017-Oct-16 21:30N 01°16' E 103°46'0 0.0
2017-Oct-16 21:00N 01°16' E 103°46'0 0.0
2017-Oct-16 20:30N 01°16' E 103°46'0 0.0
2017-Oct-16 20:00N 01°16' E 103°46'0 0.0
2017-Oct-16 19:30N 01°16' E 103°46'0 0.0
2017-Oct-16 19:00N 01°16' E 103°46'0 0.0
2017-Oct-16 18:30N 01°16' E 103°46'0 0.0
2017-Oct-16 18:00N 01°16' E 103°46'0 0.0
2017-Oct-16 17:30N 01°16' E 103°46'0 0.0
2017-Oct-16 17:00N 01°16' E 103°46'0 0.0
2017-Oct-16 16:27N 01°16' E 103°46'0 0.0
2017-Oct-16 16:00N 01°16' E 103°46'0 0.0
2017-Oct-16 15:30N 01°16' E 103°46'0 0.0
2017-Oct-16 15:00N 01°16' E 103°46'0 0.0
2017-Oct-16 14:30N 01°16' E 103°46'0 0.0
2017-Oct-16 13:30N 01°16' E 103°46'0 0.0
2017-Oct-16 13:00N 01°16' E 103°46'0 0.0
2017-Oct-16 12:30N 01°16' E 103°46'0 0.0
2017-Oct-16 12:00N 01°16' E 103°46'0 0.0
2017-Oct-16 11:30N 01°16' E 103°46'0 0.0
2017-Oct-16 11:00N 01°16' E 103°46'0 0.0
2017-Oct-16 10:30N 01°16' E 103°46'0 0.0
2017-Oct-16 10:00N 01°16' E 103°46'0 0.0
2017-Oct-16 09:30N 01°16' E 103°46'0 0.0
2017-Oct-16 09:00N 01°16' E 103°46'0 0.0
2017-Oct-16 08:30N 01°16' E 103°46'0 0.0
2017-Oct-16 07:54N 01°16' E 103°46'0 0.0
2017-Oct-16 07:30N 01°16' E 103°46'0 0.1
2017-Oct-16 07:01N 01°16' E 103°46'1 2.1
2017-Oct-16 06:31N 01°15' E 103°47'4 7.4
2017-Oct-16 06:01N 01°13' E 103°49'5 9.1
2017-Oct-16 05:30N 01°14' E 103°54'3 5.6
2017-Oct-16 05:01N 01°14' E 103°56'4 8.0
2017-Oct-16 04:31N 01°16' E 104°00'5 9.1
2017-Oct-16 03:59N 01°17' E 104°05'  

Dump ship's entire track history